createdAt,value
2018-05-11T00:01:12.535Z,99.90
2018-05-11T00:03:38.577Z,99.90
2018-05-11T00:06:04.689Z,99.90
2018-05-11T00:08:31.100Z,99.90
2018-05-11T00:10:57.176Z,99.90
2018-05-11T00:13:23.261Z,99.90
2018-05-11T00:15:49.328Z,99.90
2018-05-11T00:18:15.832Z,99.90
2018-05-11T00:20:42.082Z,99.90
2018-05-11T00:23:08.223Z,99.90
2018-05-11T00:25:34.246Z,99.90
2018-05-11T00:28:00.452Z,99.90
2018-05-11T00:30:26.479Z,99.90
2018-05-11T00:32:52.535Z,99.90
2018-05-11T00:35:18.551Z,99.90
2018-05-11T00:37:44.531Z,99.90
2018-05-11T00:40:11.117Z,99.90
2018-05-11T00:42:37.106Z,99.90
2018-05-11T00:45:03.141Z,99.90
2018-05-11T00:47:29.157Z,99.90
2018-05-11T00:49:55.193Z,99.90
2018-05-11T00:52:21.221Z,99.90
2018-05-11T00:54:47.869Z,99.90
2018-05-11T00:57:14.435Z,99.90
2018-05-11T00:59:40.644Z,99.90
2018-05-11T01:02:06.858Z,99.90
2018-05-11T01:04:32.988Z,99.90
2018-05-11T01:06:59.158Z,99.90
2018-05-11T01:09:25.351Z,99.90
2018-05-11T01:11:51.357Z,99.90
2018-05-11T01:14:17.458Z,99.90
2018-05-11T01:16:43.509Z,99.90
2018-05-11T01:19:09.753Z,99.90
2018-05-11T01:21:35.810Z,99.90
2018-05-11T01:24:02.286Z,99.90
2018-05-11T01:26:28.882Z,99.90
2018-05-11T01:28:55.521Z,99.90
2018-05-11T01:31:21.588Z,99.90
2018-05-11T01:33:48.753Z,99.90
2018-05-11T01:36:15.701Z,99.90
2018-05-11T01:38:41.819Z,99.90
2018-05-11T01:41:08.014Z,99.90
2018-05-11T01:43:34.072Z,99.90
2018-05-11T01:46:00.146Z,99.90
2018-05-11T01:48:26.322Z,99.90
2018-05-11T01:50:52.365Z,99.90
2018-05-11T01:53:18.444Z,99.90
2018-05-11T01:55:44.591Z,99.90
2018-05-11T01:58:10.697Z,99.90
2018-05-11T02:00:36.806Z,99.90
2018-05-11T02:03:02.855Z,99.90
2018-05-11T02:05:28.950Z,99.90
2018-05-11T02:07:55.536Z,99.90
2018-05-11T02:10:21.666Z,99.90
2018-05-11T02:12:47.797Z,99.90
2018-05-11T02:15:13.870Z,99.90
2018-05-11T02:17:39.991Z,99.90
2018-05-11T02:20:06.116Z,99.90
2018-05-11T02:22:32.088Z,99.90
2018-05-11T02:24:58.293Z,99.90
2018-05-11T02:27:24.384Z,99.90
2018-05-11T02:29:50.715Z,99.90
2018-05-11T02:32:16.810Z,99.90
2018-05-11T02:34:43.369Z,99.90
2018-05-11T02:37:09.409Z,99.90
2018-05-11T02:39:35.418Z,99.90
2018-05-11T02:42:01.424Z,99.90
2018-05-11T02:44:27.558Z,99.90
2018-05-11T02:46:53.542Z,99.90
2018-05-11T02:49:19.581Z,99.90
2018-05-11T02:51:45.593Z,99.90
2018-05-11T02:54:11.618Z,99.90
2018-05-11T02:56:37.686Z,99.90
2018-05-11T02:59:03.672Z,99.90
2018-05-11T03:01:29.704Z,99.90
2018-05-11T03:03:55.768Z,99.90
2018-05-11T03:06:21.848Z,99.90
2018-05-11T03:08:47.872Z,99.90
2018-05-11T03:11:14.006Z,99.90
2018-05-11T03:13:40.025Z,99.90
2018-05-11T03:16:06.171Z,99.90
2018-05-11T03:18:32.242Z,99.90
2018-05-11T03:20:58.216Z,99.90
2018-05-11T03:23:24.261Z,99.90
2018-05-11T03:25:50.334Z,99.90
2018-05-11T03:28:16.360Z,99.90
2018-05-11T03:30:43.301Z,99.90
2018-05-11T03:33:09.322Z,99.90
2018-05-11T03:35:35.360Z,99.90
2018-05-11T03:38:01.411Z,99.90
2018-05-11T03:40:27.440Z,99.90
2018-05-11T03:42:53.454Z,99.90
2018-05-11T03:45:19.521Z,99.90
2018-05-11T03:47:46.367Z,99.90
2018-05-11T03:50:13.244Z,99.90
2018-05-11T03:52:39.221Z,99.90
2018-05-11T03:55:05.251Z,99.90
2018-05-11T03:57:31.272Z,99.90
2018-05-11T03:59:57.487Z,99.90
2018-05-11T04:02:35.601Z,99.90
2018-05-11T04:05:13.978Z,99.90
2018-05-11T04:07:52.364Z,99.90
2018-05-11T04:10:18.409Z,99.90
2018-05-11T04:12:44.416Z,99.90
2018-05-11T04:15:10.412Z,99.90
2018-05-11T04:17:36.440Z,99.90
2018-05-11T04:20:02.585Z,99.90
2018-05-11T04:22:28.600Z,99.90
2018-05-11T04:24:54.696Z,99.90
2018-05-11T04:27:20.812Z,99.90
2018-05-11T04:29:46.808Z,99.90
2018-05-11T04:32:12.857Z,99.90
2018-05-11T04:34:38.856Z,99.90
2018-05-11T04:37:04.894Z,99.90
2018-05-11T04:39:30.900Z,99.90
2018-05-11T04:41:57.018Z,99.90
2018-05-11T04:44:23.009Z,99.90
2018-05-11T05:03:32.481Z,99.90
2018-05-11T05:05:58.440Z,99.90
2018-05-11T05:08:24.565Z,99.90
2018-05-11T05:10:50.558Z,99.90
2018-05-11T05:13:17.759Z,99.90
2018-05-11T05:15:44.763Z,99.90
2018-05-11T05:18:10.874Z,99.90
2018-05-11T05:20:36.902Z,99.90
2018-05-11T05:23:02.943Z,99.90
2018-05-11T05:25:29.176Z,99.90
2018-05-11T05:27:55.200Z,99.90
2018-05-11T05:30:21.456Z,99.90
2018-05-11T05:32:47.464Z,99.90
2018-05-11T05:35:13.480Z,99.90
2018-05-11T05:37:39.488Z,99.90
2018-05-11T05:40:06.103Z,99.90
2018-05-11T05:42:32.156Z,99.90
2018-05-11T05:44:58.319Z,99.90
2018-05-11T05:47:24.368Z,99.90
2018-05-11T05:49:50.389Z,99.90
2018-05-11T05:52:16.400Z,99.90
2018-05-11T05:54:42.514Z,99.90
2018-05-11T05:57:08.468Z,99.90
2018-05-11T05:59:34.453Z,99.90
2018-05-11T06:02:00.547Z,99.90
2018-05-11T06:04:26.527Z,99.90
2018-05-11T06:06:52.597Z,99.90
2018-05-11T06:09:18.641Z,99.90
2018-05-11T06:11:44.635Z,99.90
2018-05-11T06:14:10.667Z,99.90
2018-05-11T06:16:36.654Z,99.90
2018-05-11T06:19:02.653Z,99.90
2018-05-11T06:21:29.603Z,99.90
2018-05-11T06:23:58.481Z,99.90
2018-05-11T06:26:24.631Z,99.90
2018-05-11T06:28:50.680Z,99.90
2018-05-11T06:31:16.711Z,99.90
2018-05-11T06:33:42.768Z,99.90
2018-05-11T06:36:09.193Z,99.90
2018-05-11T06:38:35.408Z,99.90
2018-05-11T06:41:02.688Z,99.90
2018-05-11T06:43:29.699Z,99.90
2018-05-11T06:45:55.737Z,99.90
2018-05-11T06:48:22.111Z,99.90
2018-05-11T06:50:48.218Z,99.90
2018-05-11T06:53:14.366Z,99.90
2018-05-11T06:55:40.574Z,99.90
2018-05-11T06:58:06.625Z,99.90
2018-05-11T07:00:32.735Z,99.90
2018-05-11T07:02:58.844Z,99.90
2018-05-11T07:05:24.995Z,99.90
2018-05-11T07:07:51.037Z,99.90
2018-05-11T07:10:17.208Z,99.90
2018-05-11T07:12:43.344Z,99.90
2018-05-11T07:15:09.467Z,99.90
2018-05-11T07:17:35.601Z,99.90
2018-05-11T07:20:01.676Z,99.90
2018-05-11T07:22:27.775Z,99.90
2018-05-11T07:24:53.855Z,99.90
2018-05-11T07:27:20.585Z,99.90
2018-05-11T07:29:46.609Z,99.90
2018-05-11T07:32:12.720Z,99.90
2018-05-11T07:34:39.607Z,99.90
2018-05-11T07:37:05.943Z,99.90
2018-05-11T07:39:31.972Z,99.90
2018-05-11T07:41:58.800Z,99.90
2018-05-11T07:44:25.001Z,99.90
2018-05-11T07:46:51.057Z,99.90
2018-05-11T07:49:17.114Z,99.90
2018-05-11T07:51:43.256Z,99.90
2018-05-11T07:54:09.232Z,99.90
2018-05-11T07:56:35.643Z,99.90
2018-05-11T07:59:03.127Z,99.90
2018-05-11T08:01:29.464Z,99.90
2018-05-11T08:03:55.511Z,99.90
2018-05-11T08:06:21.536Z,99.90
2018-05-11T08:08:47.553Z,99.90
2018-05-11T08:11:13.574Z,99.90
2018-05-11T08:13:39.667Z,99.90
2018-05-11T08:16:05.696Z,99.90
2018-05-11T08:18:31.885Z,99.90
2018-05-11T08:20:58.861Z,99.90
2018-05-11T08:23:25.071Z,99.90
2018-05-11T08:25:51.368Z,99.90
2018-05-11T08:28:17.468Z,99.90
2018-05-11T08:30:44.521Z,99.90
2018-05-11T08:33:10.609Z,99.90
2018-05-11T08:35:37.053Z,99.90
2018-05-11T08:38:03.482Z,99.90
2018-05-11T08:40:29.670Z,99.90
2018-05-11T08:42:56.045Z,99.90
2018-05-11T08:45:22.030Z,99.90
2018-05-11T08:47:48.538Z,99.90
2018-05-11T08:50:14.779Z,99.90
2018-05-11T08:52:40.985Z,99.90
2018-05-11T08:55:07.067Z,99.90
2018-05-11T08:57:33.159Z,99.90
2018-05-11T08:59:59.167Z,99.90
2018-05-11T09:02:25.546Z,99.90
2018-05-11T09:04:51.624Z,99.90
2018-05-11T09:07:17.884Z,99.90
2018-05-11T09:09:44.003Z,99.90
2018-05-11T09:12:09.977Z,99.90
2018-05-11T09:14:36.797Z,99.90
2018-05-11T09:17:03.809Z,99.90
2018-05-11T09:19:36.617Z,99.90
2018-05-11T09:22:02.663Z,99.90
2018-05-11T09:24:29.184Z,99.90
2018-05-11T09:26:55.174Z,99.90
2018-05-11T09:29:21.144Z,99.90
2018-05-11T09:31:48.145Z,99.30
2018-05-11T09:34:14.090Z,98.70
2018-05-11T09:36:40.808Z,99.00
2018-05-11T09:39:06.992Z,99.20
2018-05-11T09:41:33.022Z,99.40
2018-05-11T09:43:59.084Z,99.30
2018-05-11T09:46:25.120Z,99.30
2018-05-11T09:48:51.288Z,98.90
2018-05-11T09:51:17.465Z,99.10
2018-05-11T09:53:43.867Z,98.60
2018-05-11T09:56:10.144Z,98.00
2018-05-11T09:58:36.228Z,98.80
2018-05-11T10:01:02.350Z,99.20
2018-05-11T10:03:28.495Z,98.30
2018-05-11T10:05:54.599Z,98.70
2018-05-11T10:08:20.741Z,97.70
2018-05-11T10:10:46.894Z,97.00
2018-05-11T10:13:12.898Z,97.20
2018-05-11T10:15:40.026Z,97.70
2018-05-11T10:18:06.127Z,97.50
2018-05-11T10:20:33.337Z,97.20
2018-05-11T10:22:59.487Z,96.00
2018-05-11T10:25:25.539Z,95.80
2018-05-11T10:27:53.397Z,94.90
2018-05-11T10:30:19.669Z,94.80
2018-05-11T10:32:47.493Z,95.00
2018-05-11T10:35:13.733Z,94.00
2018-05-11T10:37:39.905Z,93.70
2018-05-11T10:40:05.982Z,92.50
2018-05-11T10:42:32.119Z,92.10
2018-05-11T10:44:58.132Z,91.60
2018-05-11T10:47:25.545Z,91.60
2018-05-11T10:49:52.081Z,91.10
2018-05-11T10:52:18.687Z,88.90
2018-05-11T10:54:44.684Z,86.20
2018-05-11T10:57:12.057Z,85.40
2018-05-11T10:59:38.796Z,84.50
2018-05-11T11:02:05.025Z,83.70
2018-05-11T11:04:32.594Z,80.70
2018-05-11T11:06:58.759Z,82.20
2018-05-11T11:09:24.835Z,80.00
2018-05-11T11:11:51.045Z,78.20
2018-05-11T11:14:24.397Z,73.40
2018-05-11T11:16:51.271Z,72.30
2018-05-11T11:19:17.415Z,68.10
2018-05-11T11:21:43.721Z,71.10
2018-05-11T11:24:09.810Z,74.10
2018-05-11T11:26:36.002Z,76.10
2018-05-11T11:29:03.379Z,76.20
2018-05-11T11:31:30.315Z,74.50
2018-05-11T11:33:57.531Z,74.80
2018-05-11T11:36:24.786Z,74.30
2018-05-11T11:38:51.299Z,74.70
2018-05-11T11:41:17.415Z,72.20
2018-05-11T11:43:44.669Z,72.90
2018-05-11T11:46:10.699Z,74.00
2018-05-11T11:48:38.284Z,73.80
2018-05-11T11:51:05.005Z,73.80
2018-05-11T11:53:31.280Z,74.20
2018-05-11T11:55:57.545Z,73.30
2018-05-11T11:58:25.456Z,73.60
2018-05-11T12:00:51.669Z,73.20
2018-05-11T12:03:19.855Z,71.70
2018-05-11T12:05:46.965Z,71.60
2018-05-11T12:08:13.233Z,72.60
2018-05-11T12:10:41.747Z,72.30
2018-05-11T12:13:08.283Z,72.90
2018-05-11T12:15:35.210Z,73.40
2018-05-11T12:18:01.285Z,73.00
2018-05-11T12:20:27.331Z,74.60
2018-05-11T12:22:53.397Z,73.50
2018-05-11T12:25:19.441Z,73.30
2018-05-11T12:27:45.582Z,73.50
2018-05-11T12:30:11.682Z,73.00
2018-05-11T12:32:38.289Z,72.30
2018-05-11T12:35:04.392Z,73.00
2018-05-11T12:37:31.438Z,73.40
2018-05-11T12:39:57.717Z,73.30
2018-05-11T12:42:23.964Z,73.50
2018-05-11T12:44:50.030Z,73.70
2018-05-11T12:47:16.073Z,74.00
2018-05-11T12:49:42.128Z,73.70
2018-05-11T12:52:08.136Z,72.80
2018-05-11T12:54:35.070Z,72.40
2018-05-11T12:57:01.152Z,72.40
2018-05-11T12:59:28.686Z,72.90
2018-05-11T13:01:54.789Z,73.10
2018-05-11T13:04:21.726Z,72.70
2018-05-11T13:06:48.553Z,73.20
2018-05-11T13:09:14.605Z,73.60
2018-05-11T13:11:40.746Z,73.70
2018-05-11T13:14:07.736Z,74.70
2018-05-11T13:16:34.393Z,75.20
2018-05-11T13:19:01.454Z,75.40
2018-05-11T13:21:27.606Z,75.00
2018-05-11T13:23:54.432Z,74.60
2018-05-11T13:26:21.455Z,75.70
2018-05-11T13:28:47.612Z,75.80
2018-05-11T13:31:14.437Z,74.70
2018-05-11T13:33:40.833Z,74.40
2018-05-11T13:36:06.928Z,74.70
2018-05-11T13:38:34.316Z,74.10
2018-05-11T13:41:01.279Z,75.00
2018-05-11T13:43:27.318Z,75.10
2018-05-11T13:45:53.422Z,75.90
2018-05-11T13:48:19.651Z,76.20
2018-05-11T13:50:46.525Z,75.90
2018-05-11T13:53:12.993Z,75.30
2018-05-11T13:55:39.204Z,74.50
2018-05-11T13:58:05.352Z,75.30
2018-05-11T14:00:31.579Z,75.50
2018-05-11T14:02:57.664Z,74.60
2018-05-11T14:05:24.433Z,75.10
2018-05-11T14:07:50.633Z,76.30
2018-05-11T14:12:49.736Z,76.60
2018-05-11T14:15:16.630Z,77.00
2018-05-11T14:17:43.207Z,76.90
2018-05-11T14:20:09.369Z,76.60
2018-05-11T14:22:35.581Z,76.70
2018-05-11T14:25:01.711Z,76.10
2018-05-11T14:27:28.620Z,75.30
2018-05-11T14:29:54.685Z,75.50
2018-05-11T14:32:20.695Z,75.60
2018-05-11T14:34:46.693Z,75.80
2018-05-11T14:37:12.799Z,74.90
2018-05-11T14:39:39.586Z,73.10
2018-05-11T14:42:05.688Z,73.50
2018-05-11T14:44:31.967Z,73.90
2018-05-11T14:46:57.967Z,73.20
2018-05-11T14:49:24.041Z,72.90
2018-05-11T14:51:50.163Z,71.80
2018-05-11T14:54:16.209Z,71.30
2018-05-11T14:56:42.337Z,70.20
2018-05-11T14:59:09.295Z,71.00
2018-05-11T15:01:35.362Z,72.10
2018-05-11T15:04:02.230Z,71.40
2018-05-11T15:06:28.357Z,71.50
2018-05-11T15:08:54.429Z,70.70
2018-05-11T15:11:20.490Z,70.30
2018-05-11T15:13:46.553Z,70.40
2018-05-11T15:16:12.737Z,69.80
2018-05-11T15:18:39.863Z,70.40
2018-05-11T15:21:05.873Z,70.60
2018-05-11T15:23:31.899Z,70.90
2018-05-11T15:25:58.535Z,71.60
2018-05-11T15:28:24.616Z,71.60
2018-05-11T15:30:50.883Z,71.60
2018-05-11T15:33:17.885Z,72.60
2018-05-11T15:35:43.965Z,72.10
2018-05-11T15:38:10.996Z,73.00
2018-05-11T15:40:37.022Z,71.50
2018-05-11T15:43:03.258Z,72.30
2018-05-11T15:45:29.481Z,72.60
2018-05-11T15:47:55.951Z,72.40
2018-05-11T15:50:22.181Z,72.40
2018-05-11T15:52:48.420Z,72.70
2018-05-11T15:55:14.550Z,70.70
2018-05-11T15:57:40.681Z,70.30
2018-05-11T16:00:09.068Z,70.40
2018-05-11T16:02:36.056Z,70.50
2018-05-11T16:05:02.813Z,70.00
2018-05-11T16:07:28.875Z,70.50
2018-05-11T16:09:55.953Z,71.50
2018-05-11T16:12:22.022Z,71.10
2018-05-11T16:14:48.129Z,71.20
2018-05-11T16:17:15.233Z,70.80
2018-05-11T16:19:41.466Z,71.60
2018-05-11T16:22:09.075Z,71.40
2018-05-11T16:24:35.280Z,71.60
2018-05-11T16:27:02.075Z,71.70
2018-05-11T16:29:28.152Z,72.40
2018-05-11T16:31:54.305Z,73.10
2018-05-11T16:34:21.372Z,73.60
2018-05-11T16:36:52.237Z,73.70
2018-05-11T16:39:20.854Z,74.00
2018-05-11T16:41:46.878Z,72.90
2018-05-11T16:44:13.330Z,72.50
2018-05-11T16:46:40.129Z,72.50
2018-05-11T16:56:13.901Z,75.30
2018-05-11T16:58:39.994Z,75.30
2018-05-11T17:01:07.665Z,75.40
2018-05-11T17:03:34.428Z,76.00
2018-05-11T17:06:00.458Z,76.30
2018-05-11T17:08:26.442Z,75.50
2018-05-11T17:10:53.713Z,75.60
2018-05-11T17:13:20.996Z,74.90
2018-05-11T17:18:19.852Z,76.60
2018-05-11T17:20:49.424Z,77.40
2018-05-11T17:23:16.344Z,77.90
2018-05-11T17:25:42.578Z,78.60
2018-05-11T17:28:09.013Z,78.80
2018-05-11T17:30:35.080Z,79.20
2018-05-11T17:33:01.251Z,79.70
2018-05-11T17:35:27.479Z,80.30
2018-05-11T17:37:53.805Z,80.50
2018-05-11T17:40:19.937Z,81.00
2018-05-11T17:42:46.014Z,81.20
2018-05-11T17:45:12.049Z,81.20
2018-05-11T17:47:38.319Z,80.90
2018-05-11T17:50:05.606Z,81.10
2018-05-11T17:52:31.676Z,81.30
2018-05-11T17:54:57.768Z,81.20
2018-05-11T17:57:23.902Z,81.80
2018-05-11T17:59:50.185Z,82.60
2018-05-11T18:02:16.228Z,82.10
2018-05-11T18:04:43.870Z,81.50
2018-05-11T18:07:09.997Z,81.70
2018-05-11T18:09:36.187Z,81.60
2018-05-11T18:12:02.477Z,81.80
2018-05-11T18:14:29.292Z,81.80
2018-05-11T18:16:55.340Z,81.30
2018-05-11T18:19:21.445Z,81.10
2018-05-11T18:21:47.528Z,81.40
2018-05-11T18:24:13.543Z,82.00
2018-05-11T18:26:40.379Z,82.60
2018-05-11T18:29:07.118Z,83.00
2018-05-11T18:31:34.992Z,83.40
2018-05-11T18:34:02.679Z,84.00
2018-05-11T18:36:28.984Z,84.30
2018-05-11T18:38:55.676Z,84.70
2018-05-11T18:41:21.884Z,84.80
2018-05-11T18:43:48.039Z,85.30
2018-05-11T18:46:15.626Z,85.60
2018-05-11T18:48:41.639Z,86.30
2018-05-11T18:51:07.660Z,87.20
2018-05-11T18:53:34.271Z,87.90
2018-05-11T18:56:00.039Z,88.60
2018-05-11T18:58:26.101Z,88.90
2018-05-11T19:00:52.171Z,89.10
2018-05-11T19:03:18.250Z,89.50
2018-05-11T19:05:44.372Z,90.00
2018-05-11T19:08:10.485Z,90.30
2018-05-11T19:10:36.497Z,90.60
2018-05-11T19:13:02.638Z,90.90
2018-05-11T19:15:29.103Z,91.30
2018-05-11T19:17:55.251Z,91.50
2018-05-11T19:20:21.223Z,91.80
2018-05-11T19:22:47.365Z,92.20
2018-05-11T19:25:13.375Z,92.50
2018-05-11T19:27:39.654Z,92.70
2018-05-11T19:30:05.795Z,92.90
2018-05-11T19:32:31.854Z,92.90
2018-05-11T19:34:58.043Z,93.50
2018-05-11T19:37:24.034Z,94.00
2018-05-11T19:39:50.078Z,94.50
2018-05-11T19:42:16.239Z,95.00
2018-05-11T19:44:42.169Z,95.30
2018-05-11T19:47:08.257Z,95.60
2018-05-11T19:49:34.293Z,95.80
2018-05-11T19:52:00.337Z,96.10
2018-05-11T19:54:26.477Z,96.30
2018-05-11T19:56:52.651Z,97.00
2018-05-11T19:59:18.874Z,96.80
2018-05-11T20:01:44.879Z,97.00
2018-05-11T20:04:10.914Z,97.10
2018-05-11T20:06:37.065Z,97.60
2018-05-11T20:09:05.850Z,98.40
2018-05-11T20:11:31.832Z,99.20
2018-05-11T20:13:57.882Z,99.60
2018-05-11T20:16:24.073Z,99.80
2018-05-11T20:18:50.130Z,99.70
2018-05-11T20:21:18.078Z,99.80
2018-05-11T20:23:44.580Z,99.90
2018-05-11T20:26:12.364Z,99.80
2018-05-11T20:28:39.581Z,99.90
2018-05-11T20:31:05.685Z,99.90
2018-05-11T20:33:31.872Z,99.90
2018-05-11T20:35:58.081Z,99.90
2018-05-11T20:38:24.168Z,99.90
2018-05-11T20:40:51.854Z,99.90
2018-05-11T20:43:18.777Z,99.90
2018-05-11T20:45:45.036Z,99.90
2018-05-11T20:48:11.860Z,99.90
2018-05-11T20:50:38.102Z,99.90
2018-05-11T20:53:04.232Z,99.90
2018-05-11T20:55:30.279Z,99.90
2018-05-11T20:57:56.705Z,99.90
2018-05-11T21:00:22.729Z,99.90
2018-05-11T21:02:49.672Z,99.90
2018-05-11T21:05:15.860Z,99.90
2018-05-11T21:07:41.875Z,99.90
2018-05-11T21:10:07.955Z,99.90
2018-05-11T21:12:35.208Z,99.90
2018-05-11T21:15:01.279Z,99.90
2018-05-11T21:17:27.503Z,99.90
2018-05-11T21:19:53.846Z,99.90
2018-05-11T21:22:19.888Z,99.90
2018-05-11T21:24:46.093Z,99.90
2018-05-11T21:27:12.411Z,99.90
2018-05-11T21:29:39.979Z,99.90
2018-05-11T21:32:06.836Z,99.90
2018-05-11T21:34:33.893Z,99.90
2018-05-11T21:37:00.472Z,99.90
2018-05-11T21:39:26.839Z,99.90
2018-05-11T21:41:54.853Z,99.90
2018-05-11T21:44:21.267Z,99.90
2018-05-11T21:46:47.965Z,99.90
2018-05-11T21:49:13.996Z,99.90
2018-05-11T21:51:40.059Z,99.90
2018-05-11T21:54:06.353Z,99.90
2018-05-11T21:56:32.701Z,99.90
2018-05-11T21:58:58.890Z,99.90
2018-05-11T22:01:25.099Z,99.90
2018-05-11T22:03:52.236Z,99.90
2018-05-11T22:06:18.398Z,99.90
2018-05-11T22:08:44.605Z,99.90
2018-05-11T22:11:10.766Z,99.90
2018-05-11T22:13:36.765Z,99.90
2018-05-11T22:16:02.951Z,99.90
2018-05-11T22:18:29.055Z,99.90
2018-05-11T22:20:55.113Z,99.90
2018-05-11T22:23:21.101Z,99.90
2018-05-11T22:25:47.879Z,99.90
2018-05-11T22:28:14.809Z,99.90
2018-05-11T22:30:40.899Z,99.90
2018-05-11T22:33:06.900Z,99.90
2018-05-11T22:35:33.073Z,99.90
2018-05-11T22:37:59.155Z,99.90
2018-05-11T22:40:25.150Z,99.90
2018-05-11T22:42:51.327Z,99.90
2018-05-11T22:45:17.368Z,99.90
2018-05-11T22:47:43.629Z,99.90
2018-05-11T22:50:10.442Z,99.90
2018-05-11T22:52:36.541Z,99.90
2018-05-11T22:55:02.544Z,99.90
2018-05-11T22:57:28.733Z,99.90
2018-05-11T22:59:54.748Z,99.90
2018-05-11T23:02:21.296Z,99.90
2018-05-11T23:04:47.302Z,99.90
2018-05-11T23:07:13.323Z,99.90
2018-05-11T23:09:39.421Z,99.90
2018-05-11T23:12:05.480Z,99.90
2018-05-11T23:14:31.495Z,99.90
2018-05-11T23:16:57.529Z,99.90
2018-05-11T23:19:23.573Z,99.90
2018-05-11T23:21:49.682Z,99.90
2018-05-11T23:24:15.725Z,99.90
2018-05-11T23:26:42.066Z,99.90
2018-05-11T23:29:08.157Z,99.90
2018-05-11T23:31:34.241Z,99.90
2018-05-11T23:34:00.289Z,99.90
2018-05-11T23:36:26.393Z,99.90
2018-05-11T23:38:52.463Z,99.90
2018-05-11T23:41:18.491Z,99.90
2018-05-11T23:43:44.577Z,99.90
2018-05-11T23:46:10.647Z,99.90
2018-05-11T23:48:36.701Z,99.90
2018-05-11T23:51:02.783Z,99.90
2018-05-11T23:53:28.882Z,99.90
2018-05-11T23:55:55.075Z,99.90
2018-05-11T23:58:21.118Z,99.90
